sensor_id;sensor_type;location;lat;lon;timestamp;P1;P2;P0
74333;PMS5003;62753;40.394;-80.022;2023-05-16T00:01:17;7;5;
74333;PMS5003;62753;40.394;-80.022;2023-05-16T00:03:43;7;7;
74333;PMS5003;62753;40.394;-80.022;2023-05-16T00:06:08;9;9;
74333;PMS5003;62753;40.394;-80.022;2023-05-16T00:08:33;7;7;
74333;PMS5003;62753;40.394;-80.022;2023-05-16T00:10:58;8;7;
74333;PMS5003;62753;40.394;-80.022;2023-05-16T00:13:24;7;7;
74333;PMS5003;62753;40.394;-80.022;2023-05-16T00:15:49;6;6;
74333;PMS5003;62753;40.394;-80.022;2023-05-16T00:18:14;6;6;
74333;PMS5003;62753;40.394;-80.022;2023-05-16T00:20:39;10;8;
74333;PMS5003;62753;40.394;-80.022;2023-05-16T00:23:05;8;8;
74333;PMS5003;62753;40.394;-80.022;2023-05-16T00:25:30;7;7;
74333;PMS5003;62753;40.394;-80.022;2023-05-16T00:27:55;9;8;
74333;PMS5003;62753;40.394;-80.022;2023-05-16T00:30:20;8;7;
74333;PMS5003;62753;40.394;-80.022;2023-05-16T00:32:46;8;7;
74333;PMS5003;62753;40.394;-80.022;2023-05-16T00:35:11;8;7;
74333;PMS5003;62753;40.394;-80.022;2023-05-16T00:37:36;9;9;
74333;PMS5003;62753;40.394;-80.022;2023-05-16T00:40:02;8;8;
74333;PMS5003;62753;40.394;-80.022;2023-05-16T00:42:27;9;8;
74333;PMS5003;62753;40.394;-80.022;2023-05-16T00:44:52;10;9;
74333;PMS5003;62753;40.394;-80.022;2023-05-16T00:47:17;8;8;
74333;PMS5003;62753;40.394;-80.022;2023-05-16T00:49:42;9;9;
74333;PMS5003;62753;40.394;-80.022;2023-05-16T00:52:08;9;9;
74333;PMS5003;62753;40.394;-80.022;2023-05-16T00:54:34;10;10;
74333;PMS5003;62753;40.394;-80.022;2023-05-16T00:56:59;11;7;
74333;PMS5003;62753;40.394;-80.022;2023-05-16T00:59:25;10;9;
74333;PMS5003;62753;40.394;-80.022;2023-05-16T01:01:50;9;7;
74333;PMS5003;62753;40.394;-80.022;2023-05-16T01:04:16;12;10;
74333;PMS5003;62753;40.394;-80.022;2023-05-16T01:06:41;11;9;
74333;PMS5003;62753;40.394;-80.022;2023-05-16T01:09:06;11;10;
74333;PMS5003;62753;40.394;-80.022;2023-05-16T01:11:36;9;9;
74333;PMS5003;62753;40.394;-80.022;2023-05-16T01:13:59;12;10;
74333;PMS5003;62753;40.394;-80.022;2023-05-16T01:16:25;9;9;
74333;PMS5003;62753;40.394;-80.022;2023-05-16T01:18:51;11;11;
74333;PMS5003;62753;40.394;-80.022;2023-05-16T01:21:15;9;8;
74333;PMS5003;62753;40.394;-80.022;2023-05-16T01:23:40;10;9;
74333;PMS5003;62753;40.394;-80.022;2023-05-16T01:26:09;9;9;
74333;PMS5003;62753;40.394;-80.022;2023-05-16T01:28:30;14;9;
74333;PMS5003;62753;40.394;-80.022;2023-05-16T01:30:55;14;13;
74333;PMS5003;62753;40.394;-80.022;2023-05-16T01:33:21;13;13;
74333;PMS5003;62753;40.394;-80.022;2023-05-16T01:35:49;14;13;
74333;PMS5003;62753;40.394;-80.022;2023-05-16T01:38:14;18;17;
74333;PMS5003;62753;40.394;-80.022;2023-05-16T01:40:41;15;15;
74333;PMS5003;62753;40.394;-80.022;2023-05-16T01:43:03;13;12;
74333;PMS5003;62753;40.394;-80.022;2023-05-16T01:45:28;17;16;
74333;PMS5003;62753;40.394;-80.022;2023-05-16T01:47:56;16;13;
74333;PMS5003;62753;40.394;-80.022;2023-05-16T01:50:19;14;13;
74333;PMS5003;62753;40.394;-80.022;2023-05-16T01:52:44;15;14;
74333;PMS5003;62753;40.394;-80.022;2023-05-16T01:55:09;13;12;
74333;PMS5003;62753;40.394;-80.022;2023-05-16T01:57:34;12;10;
74333;PMS5003;62753;40.394;-80.022;2023-05-16T01:59:59;12;12;
74333;PMS5003;62753;40.394;-80.022;2023-05-16T02:02:25;12;11;
74333;PMS5003;62753;40.394;-80.022;2023-05-16T02:04:51;10;10;
74333;PMS5003;62753;40.394;-80.022;2023-05-16T02:07:16;10;9;
74333;PMS5003;62753;40.394;-80.022;2023-05-16T02:09:41;11;11;
74333;PMS5003;62753;40.394;-80.022;2023-05-16T02:12:07;10;9;
74333;PMS5003;62753;40.394;-80.022;2023-05-16T02:14:32;9;9;
74333;PMS5003;62753;40.394;-80.022;2023-05-16T02:16:57;9;9;
74333;PMS5003;62753;40.394;-80.022;2023-05-16T02:19:22;10;9;
74333;PMS5003;62753;40.394;-80.022;2023-05-16T02:21:48;8;7;
74333;PMS5003;62753;40.394;-80.022;2023-05-16T02:24:13;8;8;
74333;PMS5003;62753;40.394;-80.022;2023-05-16T02:26:38;8;8;
74333;PMS5003;62753;40.394;-80.022;2023-05-16T02:29:04;9;9;
74333;PMS5003;62753;40.394;-80.022;2023-05-16T02:31:30;8;8;
74333;PMS5003;62753;40.394;-80.022;2023-05-16T02:33:54;10;10;
74333;PMS5003;62753;40.394;-80.022;2023-05-16T02:36:19;10;9;
74333;PMS5003;62753;40.394;-80.022;2023-05-16T02:38:45;11;9;
74333;PMS5003;62753;40.394;-80.022;2023-05-16T02:41:10;9;9;
74333;PMS5003;62753;40.394;-80.022;2023-05-16T02:43:35;7;7;
74333;PMS5003;62753;40.394;-80.022;2023-05-16T02:46:03;14;9;
74333;PMS5003;62753;40.394;-80.022;2023-05-16T02:48:26;9;8;
74333;PMS5003;62753;40.394;-80.022;2023-05-16T02:50:52;8;7;
74333;PMS5003;62753;40.394;-80.022;2023-05-16T02:53:18;9;9;
74333;PMS5003;62753;40.394;-80.022;2023-05-16T02:55:43;10;9;
74333;PMS5003;62753;40.394;-80.022;2023-05-16T02:58:08;11;11;
74333;PMS5003;62753;40.394;-80.022;2023-05-16T03:00:33;10;9;
74333;PMS5003;62753;40.394;-80.022;2023-05-16T03:02:59;9;8;
74333;PMS5003;62753;40.394;-80.022;2023-05-16T03:05:24;10;9;
74333;PMS5003;62753;40.394;-80.022;2023-05-16T03:07:50;11;10;
74333;PMS5003;62753;40.394;-80.022;2023-05-16T03:10:14;10;9;
74333;PMS5003;62753;40.394;-80.022;2023-05-16T03:12:40;9;9;
74333;PMS5003;62753;40.394;-80.022;2023-05-16T03:15:06;7;6;
74333;PMS5003;62753;40.394;-80.022;2023-05-16T03:17:30;9;8;
74333;PMS5003;62753;40.394;-80.022;2023-05-16T03:19:55;6;6;
74333;PMS5003;62753;40.394;-80.022;2023-05-16T03:22:20;9;8;
74333;PMS5003;62753;40.394;-80.022;2023-05-16T03:24:46;10;7;
74333;PMS5003;62753;40.394;-80.022;2023-05-16T03:27:12;10;9;
74333;PMS5003;62753;40.394;-80.022;2023-05-16T03:29:37;7;6;
74333;PMS5003;62753;40.394;-80.022;2023-05-16T03:32:03;12;11;
74333;PMS5003;62753;40.394;-80.022;2023-05-16T03:34:28;10;10;
74333;PMS5003;62753;40.394;-80.022;2023-05-16T03:36:54;9;9;
74333;PMS5003;62753;40.394;-80.022;2023-05-16T03:39:19;11;10;
74333;PMS5003;62753;40.394;-80.022;2023-05-16T03:41:45;10;10;
74333;PMS5003;62753;40.394;-80.022;2023-05-16T03:44:10;11;11;
74333;PMS5003;62753;40.394;-80.022;2023-05-16T03:46:35;11;10;
74333;PMS5003;62753;40.394;-80.022;2023-05-16T03:49:00;12;11;
74333;PMS5003;62753;40.394;-80.022;2023-05-16T03:51:25;10;9;
74333;PMS5003;62753;40.394;-80.022;2023-05-16T03:53:50;8;8;
74333;PMS5003;62753;40.394;-80.022;2023-05-16T03:56:16;8;8;
74333;PMS5003;62753;40.394;-80.022;2023-05-16T03:58:41;9;9;
74333;PMS5003;62753;40.394;-80.022;2023-05-16T04:01:06;10;8;
74333;PMS5003;62753;40.394;-80.022;2023-05-16T04:03:32;7;7;
74333;PMS5003;62753;40.394;-80.022;2023-05-16T04:05:58;11;10;
74333;PMS5003;62753;40.394;-80.022;2023-05-16T04:08:22;9;8;
74333;PMS5003;62753;40.394;-80.022;2023-05-16T04:10:47;12;11;
74333;PMS5003;62753;40.394;-80.022;2023-05-16T04:13:13;10;10;
74333;PMS5003;62753;40.394;-80.022;2023-05-16T04:15:39;14;12;
74333;PMS5003;62753;40.394;-80.022;2023-05-16T04:18:04;12;12;
74333;PMS5003;62753;40.394;-80.022;2023-05-16T04:20:30;11;10;
74333;PMS5003;62753;40.394;-80.022;2023-05-16T04:22:55;13;12;
74333;PMS5003;62753;40.394;-80.022;2023-05-16T04:25:21;13;11;
74333;PMS5003;62753;40.394;-80.022;2023-05-16T04:27:46;12;11;
74333;PMS5003;62753;40.394;-80.022;2023-05-16T04:30:12;12;12;
74333;PMS5003;62753;40.394;-80.022;2023-05-16T04:32:38;20;16;
74333;PMS5003;62753;40.394;-80.022;2023-05-16T04:35:04;13;13;
74333;PMS5003;62753;40.394;-80.022;2023-05-16T04:37:29;11;10;
74333;PMS5003;62753;40.394;-80.022;2023-05-16T04:39:55;14;13;
74333;PMS5003;62753;40.394;-80.022;2023-05-16T04:42:20;12;10;
74333;PMS5003;62753;40.394;-80.022;2023-05-16T04:44:45;14;12;
74333;PMS5003;62753;40.394;-80.022;2023-05-16T04:47:11;11;11;
74333;PMS5003;62753;40.394;-80.022;2023-05-16T04:49:36;11;11;
74333;PMS5003;62753;40.394;-80.022;2023-05-16T04:52:01;13;11;
74333;PMS5003;62753;40.394;-80.022;2023-05-16T04:54:26;12;12;
74333;PMS5003;62753;40.394;-80.022;2023-05-16T04:56:52;12;10;
74333;PMS5003;62753;40.394;-80.022;2023-05-16T04:59:17;13;12;
74333;PMS5003;62753;40.394;-80.022;2023-05-16T05:01:43;14;12;
74333;PMS5003;62753;40.394;-80.022;2023-05-16T05:04:08;12;10;
74333;PMS5003;62753;40.394;-80.022;2023-05-16T05:06:34;14;13;
74333;PMS5003;62753;40.394;-80.022;2023-05-16T05:08:59;13;12;
74333;PMS5003;62753;40.394;-80.022;2023-05-16T05:11:24;13;12;
74333;PMS5003;62753;40.394;-80.022;2023-05-16T05:13:50;13;11;
74333;PMS5003;62753;40.394;-80.022;2023-05-16T05:16:16;13;12;
74333;PMS5003;62753;40.394;-80.022;2023-05-16T05:18:41;14;14;
74333;PMS5003;62753;40.394;-80.022;2023-05-16T05:21:06;11;10;
74333;PMS5003;62753;40.394;-80.022;2023-05-16T05:23:32;10;10;
74333;PMS5003;62753;40.394;-80.022;2023-05-16T05:25:57;12;12;
74333;PMS5003;62753;40.394;-80.022;2023-05-16T05:28:23;12;12;
74333;PMS5003;62753;40.394;-80.022;2023-05-16T05:30:48;12;11;
74333;PMS5003;62753;40.394;-80.022;2023-05-16T05:33:15;13;13;
74333;PMS5003;62753;40.394;-80.022;2023-05-16T05:35:39;12;12;
74333;PMS5003;62753;40.394;-80.022;2023-05-16T05:38:04;13;12;
74333;PMS5003;62753;40.394;-80.022;2023-05-16T05:40:29;13;13;
74333;PMS5003;62753;40.394;-80.022;2023-05-16T05:42:54;19;13;
74333;PMS5003;62753;40.394;-80.022;2023-05-16T05:45:19;17;14;
74333;PMS5003;62753;40.394;-80.022;2023-05-16T05:47:45;15;15;
74333;PMS5003;62753;40.394;-80.022;2023-05-16T05:50:10;15;12;
74333;PMS5003;62753;40.394;-80.022;2023-05-16T05:52:36;15;12;
74333;PMS5003;62753;40.394;-80.022;2023-05-16T05:55:01;14;13;
74333;PMS5003;62753;40.394;-80.022;2023-05-16T05:57:27;16;15;
74333;PMS5003;62753;40.394;-80.022;2023-05-16T05:59:52;16;15;
74333;PMS5003;62753;40.394;-80.022;2023-05-16T06:02:17;11;11;
74333;PMS5003;62753;40.394;-80.022;2023-05-16T06:04:42;14;12;
74333;PMS5003;62753;40.394;-80.022;2023-05-16T06:07:08;12;11;
74333;PMS5003;62753;40.394;-80.022;2023-05-16T06:09:33;20;16;
74333;PMS5003;62753;40.394;-80.022;2023-05-16T06:11:59;15;14;
74333;PMS5003;62753;40.394;-80.022;2023-05-16T06:14:24;14;13;
74333;PMS5003;62753;40.394;-80.022;2023-05-16T06:16:49;15;14;
74333;PMS5003;62753;40.394;-80.022;2023-05-16T06:19:14;13;12;
74333;PMS5003;62753;40.394;-80.022;2023-05-16T06:21:39;12;12;
74333;PMS5003;62753;40.394;-80.022;2023-05-16T06:24:05;17;16;
74333;PMS5003;62753;40.394;-80.022;2023-05-16T06:26:30;15;13;
74333;PMS5003;62753;40.394;-80.022;2023-05-16T06:28:55;16;13;
74333;PMS5003;62753;40.394;-80.022;2023-05-16T06:31:20;21;18;
74333;PMS5003;62753;40.394;-80.022;2023-05-16T06:33:45;18;15;
74333;PMS5003;62753;40.394;-80.022;2023-05-16T06:36:10;14;13;
74333;PMS5003;62753;40.394;-80.022;2023-05-16T06:38:36;16;15;
74333;PMS5003;62753;40.394;-80.022;2023-05-16T06:41:01;12;11;
74333;PMS5003;62753;40.394;-80.022;2023-05-16T06:43:26;12;12;
74333;PMS5003;62753;40.394;-80.022;2023-05-16T06:45:51;14;11;
74333;PMS5003;62753;40.394;-80.022;2023-05-16T06:48:17;13;13;
74333;PMS5003;62753;40.394;-80.022;2023-05-16T06:50:42;14;12;
74333;PMS5003;62753;40.394;-80.022;2023-05-16T06:53:07;13;11;
74333;PMS5003;62753;40.394;-80.022;2023-05-16T06:55:33;14;12;
74333;PMS5003;62753;40.394;-80.022;2023-05-16T06:57:58;14;13;
74333;PMS5003;62753;40.394;-80.022;2023-05-16T07:00:23;14;13;
74333;PMS5003;62753;40.394;-80.022;2023-05-16T07:02:48;14;13;
74333;PMS5003;62753;40.394;-80.022;2023-05-16T07:05:14;15;14;
74333;PMS5003;62753;40.394;-80.022;2023-05-16T07:07:39;12;12;
74333;PMS5003;62753;40.394;-80.022;2023-05-16T07:10:04;13;10;
74333;PMS5003;62753;40.394;-80.022;2023-05-16T07:12:29;13;13;
74333;PMS5003;62753;40.394;-80.022;2023-05-16T07:14:54;14;13;
74333;PMS5003;62753;40.394;-80.022;2023-05-16T07:17:19;10;10;
74333;PMS5003;62753;40.394;-80.022;2023-05-16T07:19:45;11;11;
74333;PMS5003;62753;40.394;-80.022;2023-05-16T07:22:10;13;13;
74333;PMS5003;62753;40.394;-80.022;2023-05-16T07:24:35;12;11;
74333;PMS5003;62753;40.394;-80.022;2023-05-16T07:27:01;15;14;
74333;PMS5003;62753;40.394;-80.022;2023-05-16T07:29:26;19;14;
74333;PMS5003;62753;40.394;-80.022;2023-05-16T07:31:51;14;13;
74333;PMS5003;62753;40.394;-80.022;2023-05-16T07:34:16;14;14;
74333;PMS5003;62753;40.394;-80.022;2023-05-16T07:36:42;17;15;
74333;PMS5003;62753;40.394;-80.022;2023-05-16T07:39:07;14;12;
74333;PMS5003;62753;40.394;-80.022;2023-05-16T07:41:33;22;17;
74333;PMS5003;62753;40.394;-80.022;2023-05-16T07:43:58;22;16;
74333;PMS5003;62753;40.394;-80.022;2023-05-16T07:46:24;19;15;
74333;PMS5003;62753;40.394;-80.022;2023-05-16T07:48:49;21;19;
74333;PMS5003;62753;40.394;-80.022;2023-05-16T07:51:15;16;14;
74333;PMS5003;62753;40.394;-80.022;2023-05-16T07:53:40;17;16;
74333;PMS5003;62753;40.394;-80.022;2023-05-16T07:56:05;21;18;
74333;PMS5003;62753;40.394;-80.022;2023-05-16T07:58:31;23;20;
74333;PMS5003;62753;40.394;-80.022;2023-05-16T08:00:56;20;18;
74333;PMS5003;62753;40.394;-80.022;2023-05-16T08:03:21;28;23;
74333;PMS5003;62753;40.394;-80.022;2023-05-16T08:05:47;17;17;
74333;PMS5003;62753;40.394;-80.022;2023-05-16T08:08:12;20;16;
74333;PMS5003;62753;40.394;-80.022;2023-05-16T08:10:38;21;18;
74333;PMS5003;62753;40.394;-80.022;2023-05-16T08:13:03;20;17;
74333;PMS5003;62753;40.394;-80.022;2023-05-16T08:15:29;18;17;
74333;PMS5003;62753;40.394;-80.022;2023-05-16T08:17:55;21;17;
74333;PMS5003;62753;40.394;-80.022;2023-05-16T08:20:19;20;19;
74333;PMS5003;62753;40.394;-80.022;2023-05-16T08:22:45;27;18;
74333;PMS5003;62753;40.394;-80.022;2023-05-16T08:25:10;21;18;
74333;PMS5003;62753;40.394;-80.022;2023-05-16T08:27:36;23;20;
74333;PMS5003;62753;40.394;-80.022;2023-05-16T08:30:01;22;20;
74333;PMS5003;62753;40.394;-80.022;2023-05-16T08:32:27;24;22;
74333;PMS5003;62753;40.394;-80.022;2023-05-16T08:34:51;18;18;
74333;PMS5003;62753;40.394;-80.022;2023-05-16T08:37:16;20;18;
74333;PMS5003;62753;40.394;-80.022;2023-05-16T08:39:42;18;17;
74333;PMS5003;62753;40.394;-80.022;2023-05-16T08:42:08;16;15;
74333;PMS5003;62753;40.394;-80.022;2023-05-16T08:44:33;21;19;
74333;PMS5003;62753;40.394;-80.022;2023-05-16T08:47:00;19;19;
74333;PMS5003;62753;40.394;-80.022;2023-05-16T08:49:24;18;15;
74333;PMS5003;62753;40.394;-80.022;2023-05-16T08:51:50;19;18;
74333;PMS5003;62753;40.394;-80.022;2023-05-16T08:54:15;22;20;
74333;PMS5003;62753;40.394;-80.022;2023-05-16T08:56:40;25;18;
74333;PMS5003;62753;40.394;-80.022;2023-05-16T08:59:05;26;20;
74333;PMS5003;62753;40.394;-80.022;2023-05-16T09:01:30;21;19;
74333;PMS5003;62753;40.394;-80.022;2023-05-16T09:03:56;19;17;
74333;PMS5003;62753;40.394;-80.022;2023-05-16T09:06:21;18;16;
74333;PMS5003;62753;40.394;-80.022;2023-05-16T09:08:46;16;16;
74333;PMS5003;62753;40.394;-80.022;2023-05-16T09:11:12;17;16;
74333;PMS5003;62753;40.394;-80.022;2023-05-16T09:13:37;16;16;
74333;PMS5003;62753;40.394;-80.022;2023-05-16T09:16:08;17;16;
74333;PMS5003;62753;40.394;-80.022;2023-05-16T09:18:28;19;17;
74333;PMS5003;62753;40.394;-80.022;2023-05-16T09:20:53;20;18;
74333;PMS5003;62753;40.394;-80.022;2023-05-16T09:23:23;16;15;
74333;PMS5003;62753;40.394;-80.022;2023-05-16T09:25:44;22;19;
74333;PMS5003;62753;40.394;-80.022;2023-05-16T09:28:09;37;32;
74333;PMS5003;62753;40.394;-80.022;2023-05-16T09:30:35;35;33;
74333;PMS5003;62753;40.394;-80.022;2023-05-16T09:33:00;42;37;
74333;PMS5003;62753;40.394;-80.022;2023-05-16T09:35:26;40;37;
74333;PMS5003;62753;40.394;-80.022;2023-05-16T09:37:51;39;33;
74333;PMS5003;62753;40.394;-80.022;2023-05-16T09:40:19;26;22;
74333;PMS5003;62753;40.394;-80.022;2023-05-16T09:42:41;25;23;
74333;PMS5003;62753;40.394;-80.022;2023-05-16T09:45:07;24;20;
74333;PMS5003;62753;40.394;-80.022;2023-05-16T09:47:32;30;26;
74333;PMS5003;62753;40.394;-80.022;2023-05-16T09:49:58;27;22;
74333;PMS5003;62753;40.394;-80.022;2023-05-16T09:52:25;28;22;
74333;PMS5003;62753;40.394;-80.022;2023-05-16T09:54:50;23;20;
74333;PMS5003;62753;40.394;-80.022;2023-05-16T09:57:16;21;20;
74333;PMS5003;62753;40.394;-80.022;2023-05-16T09:59:40;22;19;
74333;PMS5003;62753;40.394;-80.022;2023-05-16T10:02:06;27;24;
74333;PMS5003;62753;40.394;-80.022;2023-05-16T10:04:31;17;17;
74333;PMS5003;62753;40.394;-80.022;2023-05-16T10:06:57;24;22;
74333;PMS5003;62753;40.394;-80.022;2023-05-16T10:09:22;26;22;
74333;PMS5003;62753;40.394;-80.022;2023-05-16T10:11:48;28;23;
74333;PMS5003;62753;40.394;-80.022;2023-05-16T10:14:13;24;23;
74333;PMS5003;62753;40.394;-80.022;2023-05-16T10:16:38;25;22;
74333;PMS5003;62753;40.394;-80.022;2023-05-16T10:19:04;20;19;
74333;PMS5003;62753;40.394;-80.022;2023-05-16T10:21:30;21;19;
74333;PMS5003;62753;40.394;-80.022;2023-05-16T10:23:55;24;23;
74333;PMS5003;62753;40.394;-80.022;2023-05-16T10:26:20;28;22;
74333;PMS5003;62753;40.394;-80.022;2023-05-16T10:28:45;28;21;
74333;PMS5003;62753;40.394;-80.022;2023-05-16T10:31:10;25;22;
74333;PMS5003;62753;40.394;-80.022;2023-05-16T10:33:36;25;20;
74333;PMS5003;62753;40.394;-80.022;2023-05-16T10:36:01;26;21;
74333;PMS5003;62753;40.394;-80.022;2023-05-16T10:38:26;25;23;
74333;PMS5003;62753;40.394;-80.022;2023-05-16T10:40:52;24;21;
74333;PMS5003;62753;40.394;-80.022;2023-05-16T10:43:22;27;22;
74333;PMS5003;62753;40.394;-80.022;2023-05-16T10:45:43;20;18;
74333;PMS5003;62753;40.394;-80.022;2023-05-16T10:48:09;20;20;
74333;PMS5003;62753;40.394;-80.022;2023-05-16T10:50:34;27;22;
74333;PMS5003;62753;40.394;-80.022;2023-05-16T10:55:24;25;22;
74333;PMS5003;62753;40.394;-80.022;2023-05-16T10:57:50;23;20;
74333;PMS5003;62753;40.394;-80.022;2023-05-16T11:00:20;28;23;
74333;PMS5003;62753;40.394;-80.022;2023-05-16T11:02:40;24;21;
74333;PMS5003;62753;40.394;-80.022;2023-05-16T11:05:06;24;19;
74333;PMS5003;62753;40.394;-80.022;2023-05-16T11:07:32;25;21;
74333;PMS5003;62753;40.394;-80.022;2023-05-16T11:10:03;26;22;
74333;PMS5003;62753;40.394;-80.022;2023-05-16T11:12:22;22;18;
74333;PMS5003;62753;40.394;-80.022;2023-05-16T11:14:50;23;20;
74333;PMS5003;62753;40.394;-80.022;2023-05-16T11:17:14;28;21;
74333;PMS5003;62753;40.394;-80.022;2023-05-16T11:19:39;21;20;
74333;PMS5003;62753;40.394;-80.022;2023-05-16T11:22:08;25;19;
74333;PMS5003;62753;40.394;-80.022;2023-05-16T11:24:29;22;19;
74333;PMS5003;62753;40.394;-80.022;2023-05-16T11:26:54;22;18;
74333;PMS5003;62753;40.394;-80.022;2023-05-16T11:29:19;16;14;
74333;PMS5003;62753;40.394;-80.022;2023-05-16T11:31:45;21;18;
74333;PMS5003;62753;40.394;-80.022;2023-05-16T11:34:11;18;16;
74333;PMS5003;62753;40.394;-80.022;2023-05-16T11:36:37;23;19;
74333;PMS5003;62753;40.394;-80.022;2023-05-16T11:39:05;17;17;
74333;PMS5003;62753;40.394;-80.022;2023-05-16T11:41:27;21;17;
74333;PMS5003;62753;40.394;-80.022;2023-05-16T11:43:52;25;21;
74333;PMS5003;62753;40.394;-80.022;2023-05-16T11:46:18;26;24;
74333;PMS5003;62753;40.394;-80.022;2023-05-16T11:48:44;34;28;
74333;PMS5003;62753;40.394;-80.022;2023-05-16T11:51:08;32;26;
74333;PMS5003;62753;40.394;-80.022;2023-05-16T11:53:35;27;27;
74333;PMS5003;62753;40.394;-80.022;2023-05-16T11:56:00;24;23;
74333;PMS5003;62753;40.394;-80.022;2023-05-16T11:58:25;29;23;
74333;PMS5003;62753;40.394;-80.022;2023-05-16T12:00:50;22;19;
74333;PMS5003;62753;40.394;-80.022;2023-05-16T12:03:16;24;21;
74333;PMS5003;62753;40.394;-80.022;2023-05-16T12:08:06;18;17;
74333;PMS5003;62753;40.394;-80.022;2023-05-16T12:10:32;23;16;
74333;PMS5003;62753;40.394;-80.022;2023-05-16T12:12:57;18;13;
74333;PMS5003;62753;40.394;-80.022;2023-05-16T12:15:23;17;16;
74333;PMS5003;62753;40.394;-80.022;2023-05-16T12:17:48;15;14;
74333;PMS5003;62753;40.394;-80.022;2023-05-16T12:20:14;16;14;
74333;PMS5003;62753;40.394;-80.022;2023-05-16T12:22:39;18;16;
74333;PMS5003;62753;40.394;-80.022;2023-05-16T12:27:31;15;15;
74333;PMS5003;62753;40.394;-80.022;2023-05-16T12:29:57;16;14;
74333;PMS5003;62753;40.394;-80.022;2023-05-16T12:32:21;15;13;
74333;PMS5003;62753;40.394;-80.022;2023-05-16T12:34:48;12;11;
74333;PMS5003;62753;40.394;-80.022;2023-05-16T12:37:12;19;14;
74333;PMS5003;62753;40.394;-80.022;2023-05-16T12:39:38;13;13;
74333;PMS5003;62753;40.394;-80.022;2023-05-16T12:42:04;13;12;
74333;PMS5003;62753;40.394;-80.022;2023-05-16T12:44:29;15;14;
74333;PMS5003;62753;40.394;-80.022;2023-05-16T12:46:55;15;14;
74333;PMS5003;62753;40.394;-80.022;2023-05-16T12:49:20;14;13;
74333;PMS5003;62753;40.394;-80.022;2023-05-16T12:51:47;12;12;
74333;PMS5003;62753;40.394;-80.022;2023-05-16T12:54:11;18;15;
74333;PMS5003;62753;40.394;-80.022;2023-05-16T12:56:37;22;14;
74333;PMS5003;62753;40.394;-80.022;2023-05-16T12:59:02;16;15;
74333;PMS5003;62753;40.394;-80.022;2023-05-16T13:01:27;13;12;
74333;PMS5003;62753;40.394;-80.022;2023-05-16T13:03:52;16;15;
74333;PMS5003;62753;40.394;-80.022;2023-05-16T13:06:18;17;16;
74333;PMS5003;62753;40.394;-80.022;2023-05-16T13:08:43;15;13;
74333;PMS5003;62753;40.394;-80.022;2023-05-16T13:11:08;16;15;
74333;PMS5003;62753;40.394;-80.022;2023-05-16T13:13:34;11;11;
74333;PMS5003;62753;40.394;-80.022;2023-05-16T13:16:00;14;13;
74333;PMS5003;62753;40.394;-80.022;2023-05-16T13:18:25;12;12;
74333;PMS5003;62753;40.394;-80.022;2023-05-16T13:20:50;14;12;
74333;PMS5003;62753;40.394;-80.022;2023-05-16T13:23:16;18;13;
74333;PMS5003;62753;40.394;-80.022;2023-05-16T13:25:41;17;12;
74333;PMS5003;62753;40.394;-80.022;2023-05-16T13:28:07;15;13;
74333;PMS5003;62753;40.394;-80.022;2023-05-16T13:30:32;13;12;
74333;PMS5003;62753;40.394;-80.022;2023-05-16T13:32:58;13;12;
74333;PMS5003;62753;40.394;-80.022;2023-05-16T13:35:23;15;13;
74333;PMS5003;62753;40.394;-80.022;2023-05-16T13:37:49;14;12;
74333;PMS5003;62753;40.394;-80.022;2023-05-16T13:40:14;12;12;
74333;PMS5003;62753;40.394;-80.022;2023-05-16T13:42:40;12;10;
74333;PMS5003;62753;40.394;-80.022;2023-05-16T13:45:05;15;11;
74333;PMS5003;62753;40.394;-80.022;2023-05-16T13:47:30;10;10;
74333;PMS5003;62753;40.394;-80.022;2023-05-16T13:49:55;12;12;
74333;PMS5003;62753;40.394;-80.022;2023-05-16T13:52:20;15;13;
74333;PMS5003;62753;40.394;-80.022;2023-05-16T13:54:46;10;10;
74333;PMS5003;62753;40.394;-80.022;2023-05-16T13:57:11;11;9;
74333;PMS5003;62753;40.394;-80.022;2023-05-16T13:59:36;11;11;
74333;PMS5003;62753;40.394;-80.022;2023-05-16T14:02:02;14;12;
74333;PMS5003;62753;40.394;-80.022;2023-05-16T14:04:27;11;9;
74333;PMS5003;62753;40.394;-80.022;2023-05-16T14:06:53;13;13;
74333;PMS5003;62753;40.394;-80.022;2023-05-16T14:09:18;12;12;
74333;PMS5003;62753;40.394;-80.022;2023-05-16T14:11:44;12;10;
74333;PMS5003;62753;40.394;-80.022;2023-05-16T14:14:09;13;13;
74333;PMS5003;62753;40.394;-80.022;2023-05-16T14:16:34;9;8;
74333;PMS5003;62753;40.394;-80.022;2023-05-16T14:19:00;12;11;
74333;PMS5003;62753;40.394;-80.022;2023-05-16T14:21:25;15;13;
74333;PMS5003;62753;40.394;-80.022;2023-05-16T14:23:50;12;11;
74333;PMS5003;62753;40.394;-80.022;2023-05-16T14:26:16;12;12;
74333;PMS5003;62753;40.394;-80.022;2023-05-16T14:28:41;11;9;
74333;PMS5003;62753;40.394;-80.022;2023-05-16T14:31:07;9;9;
74333;PMS5003;62753;40.394;-80.022;2023-05-16T14:33:32;12;11;
74333;PMS5003;62753;40.394;-80.022;2023-05-16T14:35:57;7;7;
74333;PMS5003;62753;40.394;-80.022;2023-05-16T14:38:22;12;11;
74333;PMS5003;62753;40.394;-80.022;2023-05-16T14:40:47;10;10;
74333;PMS5003;62753;40.394;-80.022;2023-05-16T14:43:13;9;8;
74333;PMS5003;62753;40.394;-80.022;2023-05-16T14:45:38;12;11;
74333;PMS5003;62753;40.394;-80.022;2023-05-16T14:48:04;9;9;
74333;PMS5003;62753;40.394;-80.022;2023-05-16T14:50:29;12;11;
74333;PMS5003;62753;40.394;-80.022;2023-05-16T14:52:54;11;11;
74333;PMS5003;62753;40.394;-80.022;2023-05-16T14:55:19;11;10;
74333;PMS5003;62753;40.394;-80.022;2023-05-16T14:57:44;10;10;
74333;PMS5003;62753;40.394;-80.022;2023-05-16T15:00:10;12;10;
74333;PMS5003;62753;40.394;-80.022;2023-05-16T15:02:34;8;8;
74333;PMS5003;62753;40.394;-80.022;2023-05-16T15:05:00;9;9;
74333;PMS5003;62753;40.394;-80.022;2023-05-16T15:07:25;12;9;
74333;PMS5003;62753;40.394;-80.022;2023-05-16T15:09:50;7;7;
74333;PMS5003;62753;40.394;-80.022;2023-05-16T15:12:16;8;8;
74333;PMS5003;62753;40.394;-80.022;2023-05-16T15:14:41;9;9;
74333;PMS5003;62753;40.394;-80.022;2023-05-16T15:17:06;10;8;
74333;PMS5003;62753;40.394;-80.022;2023-05-16T15:19:31;10;10;
74333;PMS5003;62753;40.394;-80.022;2023-05-16T15:21:57;8;8;
74333;PMS5003;62753;40.394;-80.022;2023-05-16T15:24:22;7;7;
74333;PMS5003;62753;40.394;-80.022;2023-05-16T15:26:47;8;8;
74333;PMS5003;62753;40.394;-80.022;2023-05-16T15:29:12;7;7;
74333;PMS5003;62753;40.394;-80.022;2023-05-16T15:31:37;6;6;
74333;PMS5003;62753;40.394;-80.022;2023-05-16T15:34:02;8;8;
74333;PMS5003;62753;40.394;-80.022;2023-05-16T15:36:27;7;7;
74333;PMS5003;62753;40.394;-80.022;2023-05-16T15:38:52;7;7;
74333;PMS5003;62753;40.394;-80.022;2023-05-16T15:41:18;5;5;
74333;PMS5003;62753;40.394;-80.022;2023-05-16T15:43:43;8;8;
74333;PMS5003;62753;40.394;-80.022;2023-05-16T15:46:08;7;6;